createdAt,value
2022-09-20T00:00:11.064Z,9.56
2022-09-20T00:01:14.146Z,10.42
2022-09-20T00:02:11.065Z,8.52
2022-09-20T00:03:11.071Z,10.00
2022-09-20T00:04:11.061Z,9.16
2022-09-20T00:05:12.140Z,10.02
2022-09-20T00:06:12.072Z,8.10
2022-09-20T00:07:11.065Z,12.52
2022-09-20T00:08:14.071Z,9.58
2022-09-20T00:09:11.064Z,8.82
2022-09-20T00:10:11.065Z,6.66
2022-09-20T00:11:14.064Z,6.28
2022-09-20T00:12:11.063Z,7.76
2022-09-20T00:13:11.065Z,9.56
2022-09-20T00:14:12.065Z,9.82
2022-09-20T00:15:11.064Z,6.82
2022-09-20T00:16:11.156Z,10.52
2022-09-20T00:17:11.065Z,6.92
2022-09-20T00:18:11.064Z,9.38
2022-09-20T00:19:15.067Z,7.38
2022-09-20T00:20:11.065Z,7.76
2022-09-20T00:21:15.057Z,8.34
2022-09-20T00:22:11.065Z,8.74
2022-09-20T00:23:11.057Z,9.06
2022-09-20T00:24:11.059Z,6.38
2022-09-20T00:25:11.065Z,10.58
2022-09-20T00:26:11.056Z,10.78
2022-09-20T00:27:11.061Z,8.28
2022-09-20T00:28:13.065Z,8.22
2022-09-20T00:29:11.057Z,7.86
2022-09-20T00:30:11.059Z,8.68
2022-09-20T00:31:11.079Z,6.94
2022-09-20T00:32:11.081Z,8.08
2022-09-20T00:33:11.055Z,6.58
2022-09-20T00:34:15.072Z,9.40
2022-09-20T00:35:14.067Z,9.20
2022-09-20T00:36:11.059Z,8.38
2022-09-20T00:37:11.059Z,6.00
2022-09-20T00:38:11.061Z,6.32
2022-09-20T00:39:12.061Z,6.68
2022-09-20T00:40:16.142Z,6.54
2022-09-20T00:41:11.060Z,12.84
2022-09-20T00:42:15.057Z,8.50
2022-09-20T00:43:15.067Z,7.18
2022-09-20T00:44:19.066Z,22.16
2022-09-20T00:45:17.061Z,7.26
2022-09-20T00:46:21.072Z,8.70
2022-09-20T00:47:19.061Z,6.62
2022-09-20T00:48:19.061Z,8.92
2022-09-20T00:49:20.069Z,8.82
2022-09-20T00:50:19.065Z,9.26
2022-09-20T00:51:14.061Z,6.38
2022-09-20T00:52:11.056Z,7.90
2022-09-20T00:53:17.067Z,8.64
2022-09-20T00:54:15.827Z,7.22
2022-09-20T00:55:13.246Z,12.18
2022-09-20T00:56:17.060Z,8.52
2022-09-20T00:57:11.069Z,7.98
2022-09-20T00:58:11.061Z,5.88
2022-09-20T00:59:19.064Z,7.78
2022-09-20T01:00:11.062Z,6.94
2022-09-20T01:01:11.119Z,7.74
2022-09-20T01:02:21.117Z,8.10
2022-09-20T01:03:13.065Z,7.52
2022-09-20T01:04:11.069Z,5.84
2022-09-20T01:05:11.062Z,9.06
2022-09-20T01:06:11.066Z,6.70
2022-09-20T01:07:13.070Z,7.06
2022-09-20T01:08:11.062Z,7.52
2022-09-20T01:09:11.064Z,9.80
2022-09-20T01:10:11.070Z,8.14
2022-09-20T01:11:11.066Z,6.70
2022-09-20T01:12:14.065Z,5.52
2022-09-20T01:13:11.071Z,9.86
2022-09-20T01:14:13.063Z,10.68
2022-09-20T01:15:11.059Z,7.98
2022-09-20T01:16:11.116Z,6.68
2022-09-20T01:17:11.065Z,6.74
2022-09-20T01:18:11.060Z,6.66
2022-09-20T01:19:19.072Z,5.66
2022-09-20T01:20:17.064Z,6.86
2022-09-20T01:21:11.056Z,8.66
2022-09-20T01:22:21.063Z,7.10
2022-09-20T01:23:19.063Z,7.08
2022-09-20T01:24:21.060Z,6.18
2022-09-20T01:25:16.061Z,6.12
2022-09-20T01:26:21.058Z,5.52
2022-09-20T01:27:19.063Z,5.72
2022-09-20T01:28:11.062Z,6.74
2022-09-20T01:29:21.062Z,5.92
2022-09-20T01:30:15.061Z,5.42
2022-09-20T01:31:21.159Z,6.62
2022-09-20T01:32:13.057Z,8.46
2022-09-20T01:33:19.071Z,7.70
2022-09-20T01:34:13.061Z,9.12
2022-09-20T01:35:11.058Z,9.16
2022-09-20T01:36:16.060Z,7.04
2022-09-20T01:37:21.061Z,7.98
2022-09-20T01:38:19.065Z,9.90
2022-09-20T01:39:19.059Z,6.16
2022-09-20T01:40:19.095Z,8.44
2022-09-20T01:41:19.064Z,8.48
2022-09-20T01:42:12.071Z,10.14
2022-09-20T01:43:19.060Z,6.50
2022-09-20T01:44:21.058Z,12.38
2022-09-20T01:45:23.061Z,6.78
2022-09-20T01:46:19.121Z,9.62
2022-09-20T01:47:19.075Z,5.24
2022-09-20T01:48:21.065Z,5.70
2022-09-20T01:49:19.061Z,8.66
2022-09-20T01:50:19.058Z,11.18
2022-09-20T01:51:19.060Z,7.06
2022-09-20T01:52:21.072Z,7.38
2022-09-20T01:53:21.064Z,6.06
2022-09-20T01:54:21.064Z,6.62
2022-09-20T01:55:21.062Z,7.20
2022-09-20T01:56:21.064Z,9.34
2022-09-20T01:57:26.457Z,7.14
2022-09-20T01:58:21.439Z,6.28
2022-09-20T01:59:24.197Z,5.06
2022-09-20T02:00:15.064Z,5.32
2022-09-20T02:01:19.153Z,7.42
2022-09-20T02:02:19.098Z,6.92
2022-09-20T02:03:19.073Z,6.66
2022-09-20T02:04:19.063Z,6.94
2022-09-20T02:05:19.062Z,6.40
2022-09-20T02:06:19.063Z,5.68
2022-09-20T02:07:19.072Z,7.64
2022-09-20T02:08:19.064Z,7.12
2022-09-20T02:09:21.063Z,6.84
2022-09-20T02:10:21.073Z,6.38
2022-09-20T02:11:21.067Z,6.12
2022-09-20T02:12:21.063Z,8.18
2022-09-20T02:13:16.071Z,7.06
2022-09-20T02:14:19.065Z,5.78
2022-09-20T02:15:19.063Z,5.16
2022-09-20T02:16:21.154Z,7.50
2022-09-20T02:17:17.065Z,5.72
2022-09-20T02:18:21.077Z,5.98
2022-09-20T02:19:21.065Z,5.80
2022-09-20T02:20:19.067Z,5.24
2022-09-20T02:21:19.055Z,7.98
2022-09-20T02:22:21.058Z,6.10
2022-09-20T02:23:19.067Z,8.74
2022-09-20T02:24:19.063Z,6.16
2022-09-20T02:25:19.058Z,6.12
2022-09-20T02:26:19.066Z,5.92
2022-09-20T02:27:19.062Z,5.54
2022-09-20T02:28:19.076Z,6.36
2022-09-20T02:29:19.063Z,6.36
2022-09-20T02:30:19.061Z,5.32
2022-09-20T02:31:17.210Z,5.68
2022-09-20T02:32:19.070Z,6.02
2022-09-20T02:33:21.080Z,7.68
2022-09-20T02:34:19.060Z,6.76
2022-09-20T02:35:21.070Z,6.00
2022-09-20T02:36:19.064Z,6.18
2022-09-20T02:37:19.072Z,5.66
2022-09-20T02:38:19.063Z,6.12
2022-09-20T02:39:21.062Z,6.26
2022-09-20T02:40:19.160Z,6.38
2022-09-20T02:41:21.062Z,5.42
2022-09-20T02:42:19.070Z,5.78
2022-09-20T02:43:20.061Z,7.24
2022-09-20T02:44:19.061Z,5.86
2022-09-20T02:45:18.058Z,6.18
2022-09-20T02:46:21.117Z,6.18
2022-09-20T02:47:19.075Z,7.06
2022-09-20T02:48:11.064Z,6.90
2022-09-20T02:49:20.059Z,5.58
2022-09-20T02:50:19.062Z,5.98
2022-09-20T02:51:21.070Z,7.74
2022-09-20T02:52:21.065Z,5.12
2022-09-20T02:53:19.065Z,7.78
2022-09-20T02:54:21.062Z,5.88
2022-09-20T02:55:19.067Z,5.72
2022-09-20T02:56:19.065Z,5.76
2022-09-20T02:57:19.065Z,5.30
2022-09-20T02:58:19.062Z,6.20
2022-09-20T02:59:21.062Z,6.28
2022-09-20T03:00:23.065Z,6.26
2022-09-20T03:01:19.103Z,6.16
2022-09-20T03:02:19.125Z,5.96
2022-09-20T03:03:19.070Z,5.48
2022-09-20T03:04:19.063Z,7.00
2022-09-20T03:05:19.064Z,6.48
2022-09-20T03:06:21.074Z,7.66
2022-09-20T03:07:21.066Z,6.92
2022-09-20T03:08:19.063Z,6.80
2022-09-20T03:09:19.061Z,5.86
2022-09-20T03:10:19.066Z,7.18
2022-09-20T03:11:19.072Z,9.34
2022-09-20T03:12:19.068Z,6.42
2022-09-20T03:13:19.065Z,6.44
2022-09-20T03:14:19.068Z,5.52
2022-09-20T03:15:21.066Z,7.22
2022-09-20T03:16:16.136Z,7.14
2022-09-20T03:17:19.067Z,5.66
2022-09-20T03:18:15.075Z,6.60
2022-09-20T03:19:21.068Z,6.58
2022-09-20T03:20:21.066Z,6.40
2022-09-20T03:21:19.065Z,6.60
2022-09-20T03:22:21.060Z,6.00
2022-09-20T03:23:19.062Z,5.94
2022-09-20T03:24:19.058Z,7.42
2022-09-20T03:25:21.061Z,5.66
2022-09-20T03:26:21.061Z,9.48
2022-09-20T03:27:19.070Z,9.20
2022-09-20T03:28:21.060Z,6.72
2022-09-20T03:29:19.058Z,6.48
2022-09-20T03:30:19.062Z,7.78
2022-09-20T03:31:19.170Z,8.66
2022-09-20T03:32:19.059Z,7.30
2022-09-20T03:33:18.057Z,6.90
2022-09-20T03:34:19.056Z,8.50
2022-09-20T03:35:21.058Z,7.94
2022-09-20T03:36:20.067Z,9.94
2022-09-20T03:37:19.061Z,7.54
2022-09-20T03:38:21.057Z,7.80
2022-09-20T03:39:21.060Z,8.18
2022-09-20T03:40:21.118Z,11.06
2022-09-20T03:41:23.059Z,7.74
2022-09-20T03:42:15.060Z,8.84
2022-09-20T03:43:21.063Z,8.64
2022-09-20T03:44:21.059Z,7.70
2022-09-20T03:45:19.061Z,7.54
2022-09-20T03:46:18.096Z,8.40
2022-09-20T03:47:19.068Z,8.72
2022-09-20T03:48:19.063Z,8.70
2022-09-20T03:49:21.059Z,7.04
2022-09-20T03:50:21.058Z,7.26
2022-09-20T03:51:18.062Z,7.70
2022-09-20T03:52:19.068Z,7.92
2022-09-20T03:53:19.061Z,9.20
2022-09-20T03:54:19.065Z,8.28
2022-09-20T03:55:19.063Z,8.58
2022-09-20T03:56:19.063Z,9.56
2022-09-20T03:57:19.071Z,9.90
2022-09-20T03:58:19.063Z,10.96
2022-09-20T03:59:19.061Z,10.30
2022-09-20T04:00:19.064Z,9.44
2022-09-20T04:01:19.119Z,8.18
2022-09-20T04:02:21.168Z,8.78
2022-09-20T04:03:19.066Z,12.82
2022-09-20T04:04:19.062Z,8.06
2022-09-20T04:05:17.066Z,8.14
2022-09-20T04:06:19.065Z,16.82
2022-09-20T04:07:19.076Z,9.44
2022-09-20T04:08:19.064Z,7.74
2022-09-20T04:09:19.064Z,9.48
2022-09-20T04:10:21.066Z,9.98
2022-09-20T04:11:19.063Z,7.82
2022-09-20T04:12:19.071Z,9.66
2022-09-20T04:13:19.064Z,10.12
2022-09-20T04:14:16.064Z,10.04
2022-09-20T04:15:19.066Z,8.12
2022-09-20T04:16:19.119Z,10.48
2022-09-20T04:17:19.070Z,8.58
2022-09-20T04:18:21.067Z,8.80
2022-09-20T04:19:21.062Z,9.18
2022-09-20T04:20:20.064Z,8.08
2022-09-20T04:21:21.060Z,8.34
2022-09-20T04:22:11.060Z,9.10
2022-09-20T04:23:19.063Z,8.14
2022-09-20T04:24:21.056Z,12.04
2022-09-20T04:25:19.061Z,9.24
2022-09-20T04:26:11.058Z,8.18
2022-09-20T04:27:21.058Z,11.08
2022-09-20T04:28:17.056Z,7.28
2022-09-20T04:29:22.055Z,9.14
2022-09-20T04:30:17.056Z,14.86
2022-09-20T04:31:20.870Z,8.82
2022-09-20T04:32:19.119Z,7.84
2022-09-20T04:33:19.057Z,10.56
2022-09-20T04:34:19.056Z,10.46
2022-09-20T04:35:23.060Z,8.10
2022-09-20T04:36:25.073Z,8.64
2022-09-20T04:37:19.067Z,9.10
2022-09-20T04:38:16.059Z,9.84
2022-09-20T04:39:19.058Z,10.26
2022-09-20T04:40:19.116Z,9.16
2022-09-20T04:41:21.063Z,8.84
2022-09-20T04:42:19.072Z,8.64
2022-09-20T04:43:19.061Z,8.96
2022-09-20T04:44:19.060Z,8.70
2022-09-20T04:45:19.062Z,9.28
2022-09-20T04:46:21.184Z,8.14
2022-09-20T04:47:21.068Z,11.74
2022-09-20T04:48:19.061Z,9.00
2022-09-20T04:49:21.061Z,8.94
2022-09-20T04:50:19.059Z,7.06
2022-09-20T04:51:21.061Z,8.58
2022-09-20T04:52:19.064Z,8.82
2022-09-20T04:53:19.063Z,8.72
2022-09-20T04:54:19.063Z,8.66
2022-09-20T04:55:21.061Z,7.52
2022-09-20T04:56:20.063Z,9.36
2022-09-20T04:57:19.061Z,8.78
2022-09-20T04:58:19.069Z,8.68
2022-09-20T04:59:21.061Z,11.68
2022-09-20T05:00:18.063Z,7.46
2022-09-20T05:01:19.133Z,9.54
2022-09-20T05:02:19.106Z,8.58
2022-09-20T05:03:19.070Z,10.12
2022-09-20T05:04:19.064Z,12.10
2022-09-20T05:05:19.066Z,11.34
2022-09-20T05:06:19.061Z,9.10
2022-09-20T05:07:21.058Z,9.66
2022-09-20T05:08:19.063Z,8.82
2022-09-20T05:09:21.071Z,8.98
2022-09-20T05:10:19.064Z,10.16
2022-09-20T05:11:19.061Z,10.96
2022-09-20T05:12:19.059Z,9.40
2022-09-20T05:13:19.062Z,9.52
2022-09-20T05:14:19.159Z,9.00
2022-09-20T05:15:19.067Z,10.30
2022-09-20T05:16:17.136Z,10.12
2022-09-20T05:17:19.060Z,9.94
2022-09-20T05:18:19.063Z,8.96
2022-09-20T05:19:21.071Z,10.02
2022-09-20T05:20:21.065Z,8.86
2022-09-20T05:21:19.058Z,11.12
2022-09-20T05:22:19.061Z,12.70
2022-09-20T05:23:19.061Z,12.30
2022-09-20T05:24:20.074Z,10.92
2022-09-20T05:25:19.061Z,9.08
2022-09-20T05:26:19.059Z,12.56
2022-09-20T05:27:19.059Z,10.16
2022-09-20T05:28:19.059Z,12.90
2022-09-20T05:29:18.069Z,9.36
2022-09-20T05:30:23.061Z,12.24
2022-09-20T05:31:19.134Z,9.76
2022-09-20T05:32:19.067Z,9.82
2022-09-20T05:33:19.062Z,8.92
2022-09-20T05:34:19.063Z,9.24
2022-09-20T05:35:18.062Z,10.44
2022-09-20T05:36:21.063Z,11.32
2022-09-20T05:37:19.060Z,12.10
2022-09-20T05:38:19.118Z,15.82
2022-09-20T05:39:19.065Z,13.22
2022-09-20T05:40:19.114Z,10.82
2022-09-20T05:41:20.062Z,9.66
2022-09-20T05:42:19.061Z,12.82
2022-09-20T05:43:18.058Z,11.24
2022-09-20T05:44:19.062Z,14.16
2022-09-20T05:45:19.069Z,13.80
2022-09-20T05:46:21.063Z,12.30
2022-09-20T05:47:18.063Z,13.28
2022-09-20T05:48:17.062Z,12.78
2022-09-20T05:49:21.065Z,11.58
2022-09-20T05:50:19.065Z,18.16
2022-09-20T05:51:19.065Z,10.12
2022-09-20T05:52:19.061Z,12.60
2022-09-20T05:53:21.060Z,11.88
2022-09-20T05:54:19.065Z,10.78
2022-09-20T05:55:19.067Z,16.68
2022-09-20T05:56:19.076Z,10.46
2022-09-20T05:57:21.065Z,13.74
2022-09-20T05:58:21.063Z,11.24
2022-09-20T05:59:19.060Z,13.68
2022-09-20T06:00:20.065Z,11.62
2022-09-20T06:01:19.160Z,9.34
2022-09-20T06:02:19.112Z,10.24
2022-09-20T06:03:21.065Z,18.98
2022-09-20T06:04:17.063Z,13.30
2022-09-20T06:05:19.066Z,9.22
2022-09-20T06:06:19.069Z,13.06
2022-09-20T06:07:19.073Z,10.70
2022-09-20T06:08:21.067Z,13.18
2022-09-20T06:09:23.063Z,12.10
2022-09-20T06:10:19.062Z,7.88
2022-09-20T06:11:19.064Z,10.42
2022-09-20T06:12:19.072Z,9.30
2022-09-20T06:13:20.066Z,10.36
2022-09-20T06:14:19.064Z,7.94
2022-09-20T06:15:21.062Z,9.28
2022-09-20T06:16:18.142Z,9.18
2022-09-20T06:17:19.074Z,12.12
2022-09-20T06:18:19.070Z,11.08
2022-09-20T06:19:23.067Z,9.54
2022-09-20T06:20:21.066Z,12.20
2022-09-20T06:21:19.052Z,11.72
2022-09-20T06:22:19.059Z,10.10
2022-09-20T06:23:11.057Z,17.82
2022-09-20T06:24:21.057Z,13.96
2022-09-20T06:25:19.054Z,9.68
2022-09-20T06:26:16.052Z,12.80
2022-09-20T06:27:17.059Z,9.10
2022-09-20T06:28:19.057Z,10.04
2022-09-20T06:29:13.057Z,11.42
2022-09-20T06:30:18.056Z,12.62
2022-09-20T06:31:12.153Z,15.62
2022-09-20T06:32:11.065Z,11.30
2022-09-20T06:33:18.058Z,12.08
2022-09-20T06:34:14.053Z,10.24
2022-09-20T06:35:11.057Z,11.70
2022-09-20T06:36:23.058Z,11.48
2022-09-20T06:37:23.055Z,15.02
2022-09-20T06:38:23.054Z,11.74
2022-09-20T06:39:25.057Z,12.70
2022-09-20T06:40:23.085Z,12.92
2022-09-20T06:41:15.059Z,13.84
2022-09-20T06:42:11.059Z,11.08
2022-09-20T06:43:11.057Z,12.64
2022-09-20T06:44:11.057Z,14.98
2022-09-20T06:45:11.066Z,14.72
2022-09-20T06:46:11.093Z,12.40
2022-09-20T06:47:12.059Z,13.20
2022-09-20T06:48:11.065Z,18.58
2022-09-20T06:49:13.060Z,16.48
2022-09-20T06:50:17.055Z,15.42
2022-09-20T06:51:11.066Z,12.72
2022-09-20T06:52:17.059Z,16.00
2022-09-20T06:53:15.056Z,13.32
2022-09-20T06:54:16.059Z,22.68
2022-09-20T06:55:20.067Z,14.78
2022-09-20T06:56:20.059Z,20.30
2022-09-20T06:57:11.057Z,15.10
2022-09-20T06:58:11.062Z,16.64
2022-09-20T06:59:14.069Z,14.32
2022-09-20T07:00:12.060Z,17.56
2022-09-20T07:01:11.124Z,15.76
2022-09-20T07:02:11.141Z,14.44
2022-09-20T07:03:11.060Z,13.06
2022-09-20T07:04:11.063Z,16.32
2022-09-20T07:05:17.065Z,15.24
2022-09-20T07:06:11.068Z,15.26
2022-09-20T07:07:15.058Z,15.56
2022-09-20T07:08:11.065Z,16.16
2022-09-20T07:09:12.071Z,14.94
2022-09-20T07:10:11.061Z,13.74
2022-09-20T07:11:13.060Z,14.70
2022-09-20T07:12:11.063Z,20.46
2022-09-20T07:13:11.061Z,17.50
2022-09-20T07:14:11.060Z,13.26
2022-09-20T07:15:11.061Z,18.64
2022-09-20T07:16:12.119Z,16.46
2022-09-20T07:17:11.061Z,13.62
2022-09-20T07:18:11.065Z,14.46
2022-09-20T07:19:11.069Z,18.42
2022-09-20T07:20:11.062Z,13.82
2022-09-20T07:21:14.053Z,11.76
2022-09-20T07:22:11.063Z,13.96
2022-09-20T07:23:11.056Z,16.50
2022-09-20T07:24:11.052Z,14.18
2022-09-20T07:25:11.075Z,11.86
2022-09-20T07:26:19.055Z,16.76
2022-09-20T07:27:11.058Z,13.78
2022-09-20T07:28:11.052Z,13.20
2022-09-20T07:29:11.057Z,12.02
2022-09-20T07:30:11.055Z,11.02
2022-09-20T07:31:11.054Z,11.06
2022-09-20T07:32:11.055Z,13.96
2022-09-20T07:33:11.057Z,13.46
2022-09-20T07:34:11.053Z,12.44
2022-09-20T07:35:11.055Z,16.16
2022-09-20T07:36:11.063Z,11.88
2022-09-20T07:37:11.054Z,10.34
2022-09-20T07:38:11.058Z,14.12
2022-09-20T07:39:11.065Z,11.10
2022-09-20T07:40:11.080Z,10.70
2022-09-20T07:41:11.058Z,11.72
2022-09-20T07:42:11.064Z,11.68
2022-09-20T07:43:11.056Z,10.74
2022-09-20T07:44:15.056Z,8.96
2022-09-20T07:45:11.063Z,10.06
2022-09-20T07:46:11.086Z,11.04
2022-09-20T07:47:11.056Z,9.76
2022-09-20T07:48:11.056Z,9.56
2022-09-20T07:49:11.059Z,11.24
2022-09-20T07:50:11.057Z,12.32
2022-09-20T07:51:11.061Z,11.16
2022-09-20T07:52:11.057Z,12.08
2022-09-20T07:53:11.059Z,14.12
2022-09-20T07:54:11.072Z,9.88
2022-09-20T07:55:11.059Z,11.52
2022-09-20T07:56:15.059Z,11.48
2022-09-20T07:57:11.058Z,9.88
2022-09-20T07:58:11.066Z,10.32
2022-09-20T07:59:11.060Z,10.98
2022-09-20T08:00:11.060Z,14.60
2022-09-20T08:01:11.129Z,14.88
2022-09-20T08:02:15.099Z,9.06
2022-09-20T08:03:11.056Z,16.96
2022-09-20T08:04:11.058Z,12.66
2022-09-20T08:05:11.060Z,9.54
2022-09-20T08:06:11.058Z,6.72
2022-09-20T08:07:11.060Z,11.32
2022-09-20T08:08:11.067Z,8.88
2022-09-20T08:09:11.426Z,9.78
2022-09-20T08:10:11.061Z,8.86
2022-09-20T08:11:11.070Z,8.96
2022-09-20T08:14:15.070Z,7.44
2022-09-20T08:15:11.994Z,7.40
2022-09-20T08:16:11.126Z,9.02
2022-09-20T08:17:11.061Z,8.08
2022-09-20T08:18:11.061Z,10.96
2022-09-20T08:19:14.065Z,8.38
2022-09-20T08:20:11.064Z,9.08
2022-09-20T08:21:11.067Z,14.00
2022-09-20T08:22:11.056Z,7.00
2022-09-20T08:23:22.419Z,11.00
2022-09-20T08:24:13.094Z,11.54
2022-09-20T08:25:11.060Z,10.80
2022-09-20T08:26:11.059Z,6.58
2022-09-20T08:27:11.058Z,7.76
2022-09-20T08:28:11.059Z,11.92
2022-09-20T08:29:11.057Z,9.36
2022-09-20T08:30:11.059Z,7.02
2022-09-20T08:31:11.059Z,6.96
2022-09-20T08:32:11.057Z,7.30
2022-09-20T08:33:11.060Z,4.96
2022-09-20T08:34:11.067Z,12.14
2022-09-20T08:35:11.058Z,9.74
2022-09-20T08:36:13.061Z,6.44
2022-09-20T08:37:11.071Z,6.62
2022-09-20T08:40:14.095Z,3.90
2022-09-20T08:41:15.068Z,6.30
2022-09-20T08:42:19.062Z,4.32
2022-09-20T08:43:11.056Z,4.76
2022-09-20T08:44:21.069Z,3.30
2022-09-20T08:45:23.265Z,8.00
2022-09-20T08:46:16.125Z,4.10
2022-09-20T08:47:19.062Z,4.86
2022-09-20T08:48:16.065Z,6.64
2022-09-20T08:49:16.064Z,6.48
2022-09-20T08:50:17.251Z,11.14
2022-09-20T08:51:22.664Z,9.02
2022-09-20T08:52:21.057Z,5.88
2022-09-20T08:53:13.068Z,4.94
2022-09-20T08:54:13.065Z,4.68
2022-09-20T08:55:15.070Z,4.66
2022-09-20T08:56:11.069Z,3.48
2022-09-20T08:57:16.063Z,5.92
2022-09-20T08:58:11.080Z,5.54
2022-09-20T08:59:15.062Z,3.44
2022-09-20T09:00:19.182Z,5.10
2022-09-20T09:01:14.151Z,11.80
2022-09-20T09:02:18.120Z,4.90
2022-09-20T09:03:14.062Z,4.44
2022-09-20T09:04:14.060Z,6.96
2022-09-20T09:05:19.072Z,4.12
2022-09-20T09:06:14.228Z,4.72
2022-09-20T09:07:17.352Z,4.82
2022-09-20T09:08:15.066Z,4.48
2022-09-20T09:09:17.072Z,4.46
2022-09-20T09:10:11.065Z,6.06
2022-09-20T09:11:16.063Z,4.32
2022-09-20T09:12:19.066Z,4.92
2022-09-20T09:13:17.074Z,2.84
2022-09-20T09:14:22.065Z,7.18
2022-09-20T09:15:19.063Z,4.28
2022-09-20T09:16:15.119Z,3.00
2022-09-20T09:17:13.141Z,6.84
2022-09-20T09:18:13.066Z,4.26
2022-09-20T09:19:19.064Z,5.12
2022-09-20T09:20:18.082Z,2.60
2022-09-20T09:21:15.060Z,3.12
2022-09-20T09:22:11.067Z,3.98
2022-09-20T09:23:15.055Z,3.10
2022-09-20T09:24:16.061Z,2.00
2022-09-20T09:25:19.067Z,8.40
2022-09-20T09:26:15.060Z,2.98
2022-09-20T09:27:18.055Z,2.64
2022-09-20T09:28:15.060Z,4.08
2022-09-20T09:29:16.067Z,2.36
2022-09-20T09:30:19.057Z,5.98
2022-09-20T09:31:19.121Z,4.44
2022-09-20T09:32:19.059Z,2.14
2022-09-20T09:33:19.065Z,8.16
2022-09-20T09:34:19.059Z,2.06
2022-09-20T09:35:21.057Z,4.64
2022-09-20T09:36:14.058Z,3.12
2022-09-20T09:37:23.268Z,2.08
2022-09-20T09:38:21.131Z,3.54
2022-09-20T09:39:19.071Z,4.94
2022-09-20T09:40:16.117Z,2.60
2022-09-20T09:41:19.059Z,4.08
2022-09-20T09:42:19.060Z,3.48
2022-09-20T09:43:19.072Z,2.86
2022-09-20T09:44:22.060Z,3.00
2022-09-20T09:45:18.062Z,3.42
2022-09-20T09:46:18.137Z,2.18
2022-09-20T09:47:19.060Z,3.12
2022-09-20T09:48:21.070Z,3.14
2022-09-20T09:49:17.195Z,2.62
2022-09-20T09:50:19.064Z,3.54
2022-09-20T09:51:14.058Z,5.36
2022-09-20T09:52:17.064Z,2.54
2022-09-20T09:53:19.063Z,2.58
2022-09-20T09:54:17.061Z,4.06
2022-09-20T09:55:13.059Z,2.72
2022-09-20T09:56:19.070Z,5.44
2022-09-20T09:57:19.063Z,2.54
2022-09-20T09:58:21.062Z,4.00
2022-09-20T09:59:21.062Z,2.42
2022-09-20T10:00:21.488Z,2.10
2022-09-20T10:01:21.100Z,2.72
2022-09-20T10:02:19.143Z,2.20
2022-09-20T10:03:21.065Z,2.62
2022-09-20T10:04:21.061Z,2.94
2022-09-20T10:05:21.059Z,3.80
2022-09-20T10:06:19.065Z,4.08
2022-09-20T10:07:18.065Z,8.62
2022-09-20T10:08:19.066Z,3.86
2022-09-20T10:09:19.066Z,3.82
2022-09-20T10:10:21.064Z,3.08
2022-09-20T10:11:21.066Z,3.22
2022-09-20T10:12:21.064Z,2.68
2022-09-20T10:13:19.100Z,2.48
2022-09-20T10:14:19.104Z,7.02
2022-09-20T10:15:19.066Z,2.88
2022-09-20T10:16:19.131Z,2.86
2022-09-20T10:17:21.066Z,2.26
2022-09-20T10:18:22.074Z,2.36
2022-09-20T10:19:22.826Z,2.90
2022-09-20T10:20:19.066Z,2.76
2022-09-20T10:21:19.057Z,3.10
2022-09-20T10:22:19.058Z,2.98
2022-09-20T10:23:51.542Z,4.20
2022-09-20T10:24:21.077Z,4.76
2022-09-20T10:25:21.060Z,4.30
2022-09-20T10:26:19.057Z,2.22
2022-09-20T10:27:21.061Z,14.20
2022-09-20T10:28:19.057Z,4.16
2022-09-20T10:29:19.071Z,6.58
2022-09-20T10:30:19.061Z,5.18
2022-09-20T10:31:23.469Z,3.90
2022-09-20T10:32:23.087Z,3.20
2022-09-20T10:33:21.057Z,2.60
2022-09-20T10:34:19.067Z,2.90
2022-09-20T10:35:19.059Z,2.40
2022-09-20T10:36:21.056Z,1.42
2022-09-20T10:37:19.062Z,1.56
2022-09-20T10:38:17.061Z,2.06
2022-09-20T10:39:23.063Z,1.78
2022-09-20T10:40:21.107Z,1.62
2022-09-20T10:41:21.058Z,1.92
2022-09-20T10:42:23.056Z,1.38
2022-09-20T10:43:22.061Z,4.06
2022-09-20T10:44:23.064Z,1.56
2022-09-20T10:45:50.816Z,1.60
2022-09-20T10:46:32.240Z,3.94
2022-09-20T10:47:19.145Z,2.46
2022-09-20T10:48:21.059Z,3.08
2022-09-20T10:49:19.059Z,2.84
2022-09-20T10:50:19.060Z,3.74
2022-09-20T10:51:19.071Z,3.36
2022-09-20T10:52:19.061Z,3.42
2022-09-20T10:53:21.061Z,4.56
2022-09-20T10:54:21.063Z,3.08
2022-09-20T10:55:19.062Z,2.34
2022-09-20T10:56:19.070Z,3.42
2022-09-20T10:57:21.064Z,2.64
2022-09-20T10:58:19.061Z,1.84
2022-09-20T10:59:19.061Z,5.36
2022-09-20T11:00:19.080Z,4.42
2022-09-20T11:01:21.098Z,2.66
2022-09-20T11:02:19.158Z,2.62
2022-09-20T11:03:21.061Z,1.86
2022-09-20T11:04:19.063Z,2.94
2022-09-20T11:05:19.070Z,2.06
2022-09-20T11:06:21.067Z,6.36
2022-09-20T11:07:18.073Z,3.96
2022-09-20T11:08:16.065Z,4.26
2022-09-20T11:09:15.078Z,5.44
2022-09-20T11:10:16.064Z,3.04
2022-09-20T11:11:16.075Z,3.66
2022-09-20T11:12:19.064Z,1.60
2022-09-20T11:13:19.061Z,1.90
2022-09-20T11:14:18.065Z,2.18
2022-09-20T11:15:21.074Z,7.00
2022-09-20T11:16:19.118Z,3.40
2022-09-20T11:17:23.063Z,3.30
2022-09-20T11:18:19.065Z,1.94
2022-09-20T11:19:19.069Z,2.92
2022-09-20T11:20:17.069Z,4.28
2022-09-20T11:21:19.061Z,2.20
2022-09-20T11:22:19.056Z,2.20
2022-09-20T11:23:20.057Z,4.34
2022-09-20T11:24:19.060Z,2.46
2022-09-20T11:25:20.396Z,2.54
2022-09-20T11:26:19.143Z,2.76
2022-09-20T11:27:20.056Z,2.52
2022-09-20T11:28:20.062Z,5.90
2022-09-20T11:29:21.061Z,3.50
2022-09-20T11:30:16.069Z,2.66
2022-09-20T11:31:19.122Z,4.76
2022-09-20T11:32:18.058Z,2.92
2022-09-20T11:33:17.063Z,2.52
2022-09-20T11:34:20.067Z,5.14
2022-09-20T11:35:23.062Z,3.72
2022-09-20T11:36:19.058Z,2.26
2022-09-20T11:37:11.059Z,2.50
2022-09-20T11:38:19.070Z,4.08
2022-09-20T11:39:19.061Z,3.24
2022-09-20T11:40:22.074Z,2.08
2022-09-20T11:41:20.058Z,1.86
2022-09-20T11:42:16.061Z,2.40
2022-09-20T11:43:11.086Z,1.60
2022-09-20T11:44:15.059Z,2.04
2022-09-20T11:45:13.063Z,2.78
2022-09-20T11:46:13.146Z,1.32
2022-09-20T11:47:42.796Z,1.90
2022-09-20T11:48:22.106Z,3.20
2022-09-20T11:49:20.060Z,3.56
2022-09-20T11:50:19.063Z,1.84
2022-09-20T11:51:21.063Z,1.86
2022-09-20T11:52:21.065Z,2.82
2022-09-20T11:53:19.076Z,1.42
2022-09-20T11:54:19.064Z,1.66
2022-09-20T11:55:20.062Z,1.46
2022-09-20T11:56:19.067Z,1.34
2022-09-20T11:57:14.068Z,1.24
2022-09-20T11:58:12.075Z,2.84
2022-09-20T11:59:19.063Z,1.12
2022-09-20T12:00:11.067Z,1.38
2022-09-20T12:01:14.072Z,1.58
2022-09-20T12:02:19.165Z,1.30
2022-09-20T12:03:19.104Z,1.44
2022-09-20T12:04:32.430Z,2.38
2022-09-20T12:05:21.084Z,2.12
2022-09-20T12:06:19.078Z,2.86
2022-09-20T12:07:17.989Z,3.32
2022-09-20T12:08:19.066Z,1.94
2022-09-20T12:09:19.068Z,3.74
2022-09-20T12:10:20.068Z,6.86
2022-09-20T12:11:11.078Z,2.54
2022-09-20T12:12:19.065Z,1.78
2022-09-20T12:13:21.068Z,2.22
2022-09-20T12:14:19.067Z,2.92
2022-09-20T12:15:19.080Z,2.44
2022-09-20T12:16:17.213Z,1.86
2022-09-20T12:17:19.067Z,3.08
2022-09-20T12:18:20.070Z,1.32
2022-09-20T12:19:14.071Z,1.38
2022-09-20T12:20:19.367Z,2.16
2022-09-20T12:21:17.060Z,3.42
2022-09-20T12:22:19.055Z,1.34
2022-09-20T12:23:19.062Z,1.34
2022-09-20T12:24:18.066Z,1.52
2022-09-20T12:25:19.059Z,1.48
2022-09-20T12:26:18.058Z,1.40
2022-09-20T12:27:19.059Z,5.28
2022-09-20T12:28:15.061Z,1.88
2022-09-20T12:29:19.060Z,1.08
2022-09-20T12:30:19.061Z,1.08
2022-09-20T12:31:19.246Z,1.02
2022-09-20T12:32:19.062Z,1.54
2022-09-20T12:33:19.060Z,1.80
2022-09-20T12:34:19.058Z,0.72
2022-09-20T12:35:19.055Z,0.94
2022-09-20T12:36:15.089Z,1.14
2022-09-20T12:37:17.061Z,1.14
2022-09-20T12:38:21.061Z,1.08
2022-09-20T12:39:22.432Z,0.72
2022-09-20T12:40:18.121Z,0.74
2022-09-20T12:41:16.060Z,0.28
2022-09-20T12:42:19.070Z,1.14
2022-09-20T12:43:19.063Z,2.24
2022-09-20T12:44:19.061Z,0.82
2022-09-20T12:45:18.061Z,1.60
2022-09-20T12:46:19.106Z,0.98
2022-09-20T12:47:21.067Z,1.68
2022-09-20T12:48:18.060Z,1.04
2022-09-20T12:49:21.059Z,7.58
2022-09-20T12:50:17.066Z,0.82
2022-09-20T12:51:25.076Z,0.58
2022-09-20T12:52:23.076Z,0.86
2022-09-20T12:53:15.072Z,1.26
2022-09-20T12:54:12.065Z,1.68
2022-09-20T12:55:11.359Z,1.34
2022-09-20T12:56:16.071Z,3.10
2022-09-20T12:57:18.063Z,1.54
2022-09-20T12:58:19.063Z,1.16
2022-09-20T12:59:19.062Z,5.00
2022-09-20T13:00:19.063Z,3.56
2022-09-20T13:01:19.134Z,1.74
2022-09-20T13:02:19.123Z,1.22
2022-09-20T13:03:19.115Z,2.40
2022-09-20T13:04:19.109Z,2.02
2022-09-20T13:05:19.068Z,1.50
2022-09-20T13:06:19.087Z,2.52
2022-09-20T13:07:19.069Z,2.96
2022-09-20T13:08:19.064Z,1.72
2022-09-20T13:09:11.105Z,1.88
2022-09-20T13:10:19.073Z,1.12
2022-09-20T13:11:23.092Z,1.88
2022-09-20T13:12:11.068Z,0.98
2022-09-20T13:13:20.062Z,1.00
2022-09-20T13:14:19.065Z,1.22
2022-09-20T13:15:17.080Z,3.20
2022-09-20T13:16:19.100Z,1.62